Home > Products > Valid Products > TAF

000
FTUS46 KSGX 261700
TAFSNA
TAF
KSNA 261720Z 2618/2718 VRB06KT P6SM SKC=



000
FTUS46 KSGX 261700
TAFSAN
TAF
KSAN 261720Z 2618/2724 VRB03KT P6SM SKC
     FM262000 32008KT P6SM SKC
     FM270000 VRB04KT P6SM SKC
     FM272000 30007KT P6SM SKC=



000
FTUS46 KSGX 261700
TAFTRM
TAF
KTRM 261720Z 2618/2718 VRB05KT P6SM SKC=



000
FTUS46 KSGX 261700
TAFONT
TAF
KONT 261720Z 2618/2724 VRB05KT P6SM SKC=



000
FTUS46 KSGX 261700
TAFPSP
TAF
KPSP 261720Z 2618/2718 VRB05KT P6SM SKC=



000
FTUS46 KSGX 261700
TAFCRQ
TAF
KCRQ 261720Z 2618/2718 VRB05KT P6SM SKC=



000
FTUS46 KSGX 261500 AAA
TAFSAN
TAF AMD
KSAN 261505Z 2615/2718 VRB04KT P6SM SKC
     FM262000 32008KT P6SM SKC
     FM270000 VRB04KT P6SM SKC=



000
FTUS46 KSGX 261100
TAFSNA
TAF
KSNA 261131Z 2612/2712 VRB04KT P6SM SKC
     FM261500 VRB04KT P6SM SKC WS020/05020KT
     FM261900 VRB05KT P6SM SKC=



000
FTUS46 KSGX 261100
TAFTRM
TAF
KTRM 261131Z 2612/2712 VRB05KT P6SM SKC=



000
FTUS46 KSGX 261100
TAFPSP
TAF
KPSP 261131Z 2612/2712 VRB05KT P6SM SKC=



000
FTUS46 KSGX 261100
TAFONT
TAF
KONT 261131Z 2612/2718 VRB04KT P6SM SKC
     FM261500 VRB04KT P6SM SKC WS020/04020KT
     FM261900 VRB05KT P6SM SKC=



000
FTUS46 KSGX 261100
TAFCRQ
TAF
KCRQ 261131Z 2612/2712 VRB05KT P6SM SKC=



000
FTUS46 KSGX 261100
TAFSAN
TAF
KSAN 261131Z 2612/2718 VRB04KT P6SM SKC
     FM262000 31008KT P6SM SKC
     FM270000 VRB04KT P6SM SKC=



000
FTUS46 KSGX 260800 AAA
TAFSAN
TAF AMD
KSAN 260857Z 2609/2712 VRB04KT P6SM SKC
     FM262100 31008KT P6SM SKC
     FM270100 VRB04KT P6SM SKC=



000
FTUS46 KSGX 260500
TAFPSP
TAF
KPSP 260536Z 2606/2706 VRB05KT P6SM SKC=



000
FTUS46 KSGX 260500
TAFSNA
TAF
KSNA 260536Z 2606/2706 VRB04KT P6SM SKC
     FM260900 VRB04KT P6SM SKC WS015/05020KT
     FM261800 VRB04KT P6SM SKC=



000
FTUS46 KSGX 260500
TAFTRM
TAF
KTRM 260536Z 2606/2706 VRB05KT P6SM SKC=



000
FTUS46 KSGX 260500
TAFCRQ
TAF
KCRQ 260536Z 2606/2706 VRB04KT P6SM SKC=



000
FTUS46 KSGX 260500
TAFONT
TAF
KONT 260536Z 2606/2712 VRB04KT P6SM SKC
     FM261100 VRB04KT P6SM SKC WS020/03020KT
     FM262100 VRB04KT P6SM SKC=



000
FTUS46 KSGX 260500
TAFSAN
TAF
KSAN 260536Z 2606/2712 VRB04KT P6SM SKC
     FM262100 31008KT P6SM SKC
     FM270100 VRB04KT P6SM SKC=



000
FTUS46 KSGX 260300 AAA
TAFSAN
TAF AMD
KSAN 260302Z 2603/2706 VRB04KT P6SM SKC
     FM262100 31008KT P6SM SKC
     FM270100 VRB04KT P6SM SKC=



000
FTUS46 KSGX 252300
TAFONT
TAF
KONT 252320Z 2600/2706 VRB04KT P6SM SKC
     FM261100 VRB04KT P6SM SKC WS020/03020KT
     FM262100 VRB04KT P6SM SKC=



000
FTUS46 KSGX 252300
TAFSNA
TAF
KSNA 252320Z 2600/2624 VRB04KT P6SM SKC
     FM260900 VRB04KT P6SM SKC WS015/05020KT
     FM261600 VRB04KT P6SM SKC
     FM262200 26007KT P6SM SKC=



000
FTUS46 KSGX 252300
TAFCRQ
TAF
KCRQ 252320Z 2600/2624 VRB04KT P6SM SKC=



000
FTUS46 KSGX 252300
TAFSAN
TAF
KSAN 252320Z 2600/2706 32008KT P6SM SKC
     FM260100 VRB04KT P6SM SKC
     FM262100 31008KT P6SM SKC
     FM270100 VRB04KT P6SM SKC=



000
FTUS46 KSGX 252300
TAFPSP
TAF
KPSP 252320Z 2600/2624 VRB05KT P6SM SKC=



000
FTUS46 KSGX 252300
TAFTRM
TAF
KTRM 252320Z 2600/2624 VRB05KT P6SM SKC=



000
FTUS46 KSGX 252100 AAA
TAFSAN
TAF AMD
KSAN 252106Z 2521/2624 31008KT P6SM SKC
     FM260100 VRB04KT P6SM SKC
     FM262000 30007KT P6SM SKC=



000
FTUS46 KSGX 251700
TAFSNA
TAF
KSNA 251720Z 2518/2618 VRB03KT P6SM SKC
     FM252100 23007KT P6SM SKC
     FM260200 VRB04KT P6SM SKC
     FM260900 VRB04KT P6SM SKC WS015/05020KT=



000
FTUS46 KSGX 251700
TAFCRQ
TAF
KCRQ 251720Z 2518/2618 VRB03KT P6SM SKC
     FM252000 26007KT P6SM SKC
     FM260100 VRB04KT P6SM SKC=



000
FTUS46 KSGX 251700
TAFONT
TAF
KONT 251720Z 2518/2624 VRB04KT P6SM SKC
     FM252100 28007KT P6SM SKC
     FM260300 VRB04KT P6SM SKC
     FM261100 VRB03KT P6SM SKC WS020/02020KT
     FM262100 26007KT P6SM SKC=



000
FTUS46 KSGX 251700
TAFTRM
TAF
KTRM 251720Z 2518/2618 VRB06KT P6SM SKC=



000
FTUS46 KSGX 251700
TAFSAN
TAF
KSAN 251720Z 2518/2624 VRB04KT P6SM SKC
     FM252000 31008KT P6SM SKC
     FM260100 VRB04KT P6SM SKC
     FM262000 30007KT P6SM SKC=



000
FTUS46 KSGX 251700
TAFPSP
TAF
KPSP 251720Z 2518/2618 VRB06KT P6SM SKC=



000
FTUS46 KSGX 251500 AAA
TAFSAN
TAF AMD
KSAN 251515Z 2515/2618 VRB04KT P6SM SKC
     FM252000 30008KT P6SM SKC
     FM260100 VRB04KT P6SM SKC=



000
FTUS46 KSGX 251100
TAFONT
TAF
KONT 251120Z 2512/2618 03005KT P6SM SKC
     FM252100 26007KT P6SM SKC
     FM260200 VRB04KT P6SM SKC=



000
FTUS46 KSGX 251100
TAFTRM
TAF
KTRM 251120Z 2512/2612 VRB06KT P6SM SKC=



000
FTUS46 KSGX 251100
TAFSAN
TAF
KSAN 251120Z 2512/2618 VRB04KT P6SM SKC
     FM252000 29008KT P6SM SKC
     FM260100 VRB04KT P6SM SKC=



000
FTUS46 KSGX 251100
TAFCRQ
TAF
KCRQ 251120Z 2512/2612 08007KT P6SM SKC
     FM252000 26007KT P6SM SKC
     FM260000 VRB04KT P6SM SKC=



000
FTUS46 KSGX 251100
TAFSNA
TAF
KSNA 251120Z 2512/2612 VRB04KT P6SM SKC
     FM252100 22007KT P6SM SKC
     FM260100 VRB04KT P6SM SKC
     FM260900 VRB04KT P6SM SKC WS020/05020KT=



000
FTUS46 KSGX 251100
TAFPSP
TAF
KPSP 251120Z 2512/2612 33006KT P6SM SKC
     FM251900 10006KT P6SM SKC
     FM260300 33006KT P6SM SKC=



000
FTUS46 KSGX 250900 AAA
TAFSAN
TAF AMD
KSAN 250905Z 2509/2612 VRB04KT P6SM SKC WS020/07020KT
     FM251200 VRB04KT P6SM SKC
     FM252100 29008KT P6SM SKC
     FM260100 VRB04KT P6SM SKC=



000
FTUS46 KSGX 250500
TAFSAN
TAF
KSAN 250530Z 2506/2612 VRB04KT P6SM SKC WS020/07020KT
     FM251200 VRB04KT P6SM SKC
     FM252100 29008KT P6SM SKC
     FM260100 VRB04KT P6SM SKC=



000
FTUS46 KSGX 250500
TAFCRQ
TAF
KCRQ 250530Z 2506/2606 08005KT P6SM SKC WS015/08025KT
     FM251900 26006KT P6SM SKC
     FM260000 VRB04KT P6SM SKC=



000
FTUS46 KSGX 250500
TAFPSP
TAF
KPSP 250530Z 2506/2606 VRB05KT P6SM SKC=



000
FTUS46 KSGX 250500
TAFTRM
TAF
KTRM 250530Z 2506/2606 VRB05KT P6SM SKC=



000
FTUS46 KSGX 250500
TAFSNA
TAF
KSNA 250530Z 2506/2606 08005KT P6SM SKC WS015/06025KT
     FM251300 VRB04KT P6SM SKC
     FM252100 22007KT P6SM SKC
     FM260000 VRB04KT P6SM SKC=



000
FTUS46 KSGX 250500
TAFONT
TAF
KONT 250530Z 2506/2612 VRB04KT P6SM SKC WS015/04020KT
     FM251200 VRB04KT P6SM SKC
     FM252000 26007KT P6SM SKC
     FM260200 VRB04KT P6SM SKC=



000
FTUS46 KSGX 250300 AAA
TAFONT
TAF AMD
KONT 250337Z 2504/2606 05012G20KT P6SM SKC
     FM250600 VRB04KT P6SM SKC WS015/04025KT
     FM251000 VRB04KT P6SM SKC
     FM252000 26007KT P6SM SKC
     FM260200 VRB04KT P6SM SKC=



000
FTUS46 KSGX 250300 AAA
TAFSAN
TAF AMD
KSAN 250308Z 2503/2606 VRB04KT P6SM SKC WS020/07020KT
     FM251200 VRB04KT P6SM SKC
     FM252100 29008KT P6SM SKC
     FM260100 VRB04KT P6SM SKC=



000
FTUS46 KSGX 250100 AAA
TAFSNA
TAF AMD
KSNA 250108Z 2501/2524 05013G20KT P6SM FEW200
     FM250200 VRB04KT P6SM SKC WS015/06025KT
     FM251300 VRB04KT P6SM SKC=



000
FTUS46 KSGX 242300
TAFTRM
TAF
KTRM 242331Z 2500/2524 32010KT P6SM FEW200
     FM250100 VRB05KT P6SM SKC=



000
FTUS46 KSGX 242300
TAFONT
TAF
KONT 242331Z 2500/2606 05018G30KT P6SM FEW250
     FM250200 05012G20KT P6SM SKC
     FM250400 VRB04KT P6SM SKC WS015/04025KT
     FM250900 VRB04KT P6SM SKC
     FM252000 26007KT P6SM SKC
     FM260200 VRB04KT P6SM SKC=



000
FTUS46 KSGX 242300
TAFSAN
TAF
KSAN 242331Z 2500/2606 31009KT P6SM FEW250
     FM250100 VRB04KT P6SM SKC
     FM252100 29008KT P6SM SKC
     FM260100 VRB04KT P6SM SKC=



000
FTUS46 KSGX 242300
TAFPSP
TAF
KPSP 242331Z 2500/2524 35010KT P6SM FEW200
     FM250100 VRB05KT P6SM SKC=



000
FTUS46 KSGX 242300
TAFCRQ
TAF
KCRQ 242331Z 2500/2524 VRB04KT P6SM FEW250
     FM250400 08005KT P6SM SKC WS015/08025KT
     FM251900 26006KT P6SM SKC=



000
FTUS46 KSGX 242300
TAFSNA
TAF
KSNA 242331Z 2500/2524 06010G15KT P6SM FEW200
     FM250100 VRB04KT P6SM SKC WS015/06025KT
     FM251300 VRB04KT P6SM SKC=



000
FTUS46 KSGX 242100 AAA
TAFSAN
TAF AMD
KSAN 242107Z 2421/2524 30009KT P6SM SCT250
     FM250100 VRB06KT P6SM FEW250
     FM250300 VRB04KT P6SM SKC WS015/07025KT
     FM252000 29007KT P6SM SKC=



000
FTUS46 KSGX 242100 AAA
TAFONT
TAF AMD
KONT 242105Z 2421/2524 05018G30KT P6SM SCT250
     FM242300 05012G22KT P6SM SKC
     FM250200 VRB06KT P6SM SKC WS015/04025KT
     FM250900 VRB05KT P6SM SKC
     FM252000 26006KT P6SM SKC=



000
FTUS46 KSGX 241700
TAFONT
TAF
KONT 241739Z 2418/2524 04015G25KT P6SM SCT200
     FM250200 VRB06KT P6SM SKC WS015/04025KT
     FM250900 VRB05KT P6SM SKC
     FM252000 26006KT P6SM SKC=



000
FTUS46 KSGX 241700
TAFSNA
TAF
KSNA 241739Z 2418/2518 VRB05KT P6SM SCT200 WS010/06025KT
     FM242000 05010G20KT P6SM FEW200
     FM250000 VRB04KT P6SM SKC WS015/06025KT
     FM251500 VRB04KT P6SM SKC=



000
FTUS46 KSGX 241700
TAFSAN
TAF
KSAN 241739Z 2418/2524 VRB05KT P6SM SCT200
     FM242100 29009KT P6SM FEW200
     FM250100 VRB06KT P6SM FEW200
     FM250300 VRB04KT P6SM SKC WS015/07025KT
     FM252000 29007KT P6SM SKC=



000
FTUS46 KSGX 241700
TAFCRQ
TAF
KCRQ 241739Z 2418/2518 VRB03KT P6SM SCT200
     FM242000 26007KT P6SM SCT200
     FM250100 VRB06KT P6SM FEW200
     FM250400 07006KT P6SM SKC WS015/08030KT=



000
FTUS46 KSGX 241700
TAFTRM
TAF
KTRM 241739Z 2418/2518 31005KT P6SM SCT200
     FM242000 31010KT P6SM FEW200
     FM250000 VRB05KT P6SM SKC=



000
FTUS46 KSGX 241700
TAFPSP
TAF
KPSP 241739Z 2418/2518 VRB06KT P6SM SCT200=



000
FTUS46 KSGX 241500 AAA
TAFSAN
TAF AMD
KSAN 241511Z 2415/2518 VRB03KT P6SM SCT200
     FM242000 29009KT P6SM FEW200
     FM250200 VRB04KT P6SM SKC WS020/07025KT
     FM250700 VRB03KT P6SM SKC=



000
FTUS46 KSGX 241100
TAFPSP
TAF
KPSP 241134Z 2412/2512 33007KT P6SM SCT200
     FM241900 04008KT P6SM SCT200
     FM250200 32007KT P6SM SKC=



000
FTUS46 KSGX 241100
TAFCRQ
TAF
KCRQ 241134Z 2412/2512 VRB03KT P6SM SCT200
     FM242000 27007KT P6SM SCT200
     FM250100 VRB04KT P6SM SKC WS015/08025KT
     FM250700 08007KT P6SM SKC=



000
FTUS46 KSGX 241100
TAFONT
TAF
KONT 241134Z 2412/2518 01003KT P6SM SCT200
     FM241700 04015G25KT P6SM SCT200
     FM250300 VRB06KT P6SM SKC WS015/06030KT
     FM250900 VRB05KT P6SM SKC=



000
FTUS46 KSGX 241100
TAFSAN
TAF
KSAN 241134Z 2412/2518 VRB03KT P6SM SCT200
     FM242000 29009KT P6SM SCT200
     FM250200 VRB04KT P6SM SKC WS020/07025KT
     FM250700 VRB03KT P6SM SKC=



000
FTUS46 KSGX 241100
TAFSNA
TAF
KSNA 241134Z 2412/2512 VRB04KT P6SM SCT200
     FM241700 06012G20KT P6SM SCT200
     FM250100 VRB04KT P6SM SKC WS015/07025KT=



000
FTUS46 KSGX 241100
TAFTRM
TAF
KTRM 241134Z 2412/2512 31005KT P6SM SCT200
     FM241900 33011KT P6SM SCT200
     FM250100 34005KT P6SM SKC=



000
FTUS46 KSGX 240900 AAA
TAFSAN
TAF AMD
KSAN 240905Z 2409/2512 VRB03KT P6SM SCT250
     FM242000 30009KT P6SM FEW250
     FM250400 VRB03KT P6SM SKC WS020/09025KT=



000
FTUS46 KSGX 240500
TAFSNA
TAF
KSNA 240535Z 2406/2506 VRB03KT P6SM FEW250
     FM241700 06010G20KT P6SM SKC
     FM250400 VRB03KT P6SM SKC WS020/09025KT=



000
FTUS46 KSGX 240500
TAFPSP
TAF
KPSP 240535Z 2406/2506 36009KT P6SM FEW250
     FM242100 09007KT P6SM FEW250
     FM250200 VRB03KT P6SM SKC=



000
FTUS46 KSGX 240500
TAFCRQ
TAF
KCRQ 240535Z 2406/2506 08005KT P6SM FEW250
     FM241900 27007KT P6SM SKC
     FM250400 VRB03KT P6SM SKC WS020/09025KT=



000
FTUS46 KSGX 240500
TAFONT
TAF
KONT 240535Z 2406/2512 05007KT P6SM FEW250
     FM241800 04015G25KT P6SM FEW250
     FM250300 05008KT P6SM SKC WS020/09030KT=



000
FTUS46 KSGX 240500
TAFSAN
TAF
KSAN 240535Z 2406/2512 VRB03KT P6SM FEW250
     FM242000 30009KT P6SM FEW250
     FM250400 VRB03KT P6SM SKC WS020/09025KT=



000
FTUS46 KSGX 240500
TAFTRM
TAF
KTRM 240535Z 2406/2506 31009KT P6SM FEW250=



000
FTUS46 KSGX 240300 AAA
TAFSAN
TAF AMD
KSAN 240326Z 2403/2506 VRB03KT P6SM FEW250
     FM242000 30009KT P6SM FEW250
     FM250300 VRB03KT P6SM SKC WS020/08025KT=



000
FTUS46 KSGX 240300 AAA
TAFSAN
TAF AMD
KSAN 240326Z 2403/2506 VRB03KT P6SM FEW250
     FM242000 30009KT P6SM FEW250
     FM250300 VRB03KT P6SM SKC WS020/08025KT=



000
FTUS46 KSGX 240000 CCA
TAFSNA
TAF COR
KSNA 240000Z 2400/2424 36006KT P6SM FEW250 WS015/04025KT
     FM240300 VRB03KT P6SM FEW250
     FM241700 06010G20KT P6SM SKC=



000
FTUS46 KSGX 232300
TAFTRM
TAF
KTRM 232330Z 2400/2424 31008KT P6SM FEW250=



000
FTUS46 KSGX 232300
TAFPSP
TAF
KPSP 232330Z 2400/2424 36009KT P6SM FEW250
     FM242100 06009KT P6SM FEW250=



000
FTUS46 KSGX 232300
TAFONT
TAF
KONT 232330Z 2400/2506 05015G30KT P6SM FEW250
     FM240200 05007KT P6SM FEW250
     FM241800 05015G25KT P6SM FEW250
     FM250300 05007KT P6SM SKC=



000
FTUS46 KSGX 232300
TAFSNA
TAF
KSNA 232330Z 2400/2424 06006KT P6SM FEW250 WS015/04025KT
     FM241700 06010G20KT P6SM SKC=



000
FTUS46 KSGX 232300
TAFCRQ
TAF
KCRQ 232330Z 2400/2424 08005KT P6SM FEW250
     FM241900 27007KT P6SM SKC=



000
FTUS46 KSGX 232300
TAFSAN
TAF
KSAN 232330Z 2400/2506 VRB04KT P6SM FEW250
     FM242000 30009KT P6SM FEW250
     FM250300 VRB03KT P6SM SKC=



000
FTUS46 KSGX 232100 AAA
TAFSAN
TAF AMD
KSAN 232128Z 2321/2424 31009KT P6SM SCT250
     FM240100 VRB04KT P6SM FEW250
     FM242000 30009KT P6SM FEW250=



000
FTUS46 KSGX 232100 AAA
TAFSAN
TAF AMD
KSAN 232128Z 2321/2424 31009KT P6SM SCT250
     FM240100 VRB04KT P6SM FEW250
     FM242000 30009KT P6SM FEW250=



000
FTUS46 KSGX 231900 AAA
TAFSNA
TAF AMD
KSNA 232000Z 2320/2418 03020G30KT P6SM BKN250
     FM232200 04012G22KT P6SM SCT250
     FM240000 VRB06KT P6SM FEW250
     FM240300 VRB05KT P6SM FEW250 WS015/04025KT
     FM241300 VRB04KT P6SM FEW250=



    US Dept of Commerce
    National Oceanic and Atmospheric Administration
    National Weather Service
    1325 East West Highway
    Silver Spring, MD 20910
    Page Author: NWS Internet Services Team
Disclaimer
Information Quality
Credits
Glossary
Privacy Policy
Freedom of Information Act (FOIA)
About Us
Career Opportunities